createdAt,value
2018-12-29T00:01:36.080Z,45.38
2018-12-29T00:04:16.930Z,54.50
2018-12-29T00:06:58.156Z,46.48
2018-12-29T00:09:39.048Z,56.30
2018-12-29T00:12:20.320Z,48.00
2018-12-29T00:17:50.383Z,45.85
2018-12-29T00:20:31.590Z,51.20
2018-12-29T00:23:12.851Z,49.90
2018-12-29T00:25:53.991Z,52.70
2018-12-29T00:28:35.091Z,46.73
2018-12-29T00:31:16.019Z,49.23
2018-12-29T00:33:57.410Z,49.42
2018-12-29T00:36:38.229Z,50.38
2018-12-29T00:39:06.550Z,47.27
2018-12-29T00:41:54.215Z,54.45
2018-12-29T00:44:36.887Z,51.37
2018-12-29T00:49:55.591Z,56.68
2018-12-29T00:52:36.135Z,56.05
2018-12-29T00:55:17.491Z,56.42
2018-12-29T00:57:46.123Z,53.87
2018-12-29T01:00:27.894Z,56.37
2018-12-29T01:02:56.268Z,57.48
2018-12-29T01:05:44.290Z,55.95
2018-12-29T01:08:13.858Z,54.58
2018-12-29T01:11:02.575Z,55.78
2018-12-29T01:13:44.370Z,54.10
2018-12-29T01:16:25.388Z,55.90
2018-12-29T01:19:06.351Z,55.85
2018-12-29T01:21:47.347Z,60.00
2018-12-29T01:24:16.630Z,62.20
2018-12-29T01:26:46.282Z,59.25
2018-12-29T01:29:28.959Z,56.23
2018-12-29T01:32:09.824Z,58.08
2018-12-29T01:34:51.891Z,56.95
2018-12-29T01:37:33.103Z,52.73
2018-12-29T01:40:14.492Z,53.13
2018-12-29T01:45:51.095Z,56.60
2018-12-29T01:48:33.499Z,63.10
2018-12-29T01:51:14.483Z,62.25
2018-12-29T01:53:55.155Z,54.73
2018-12-29T01:56:37.087Z,65.70
2018-12-29T01:59:17.936Z,60.73
2018-12-29T02:01:58.799Z,69.12
2018-12-29T02:04:40.341Z,65.05
2018-12-29T02:07:24.526Z,57.98
2018-12-29T02:12:54.593Z,58.48
2018-12-29T02:15:34.862Z,58.33
2018-12-29T02:20:53.716Z,63.50
2018-12-29T02:23:34.725Z,63.08
2018-12-29T02:26:02.141Z,57.50
2018-12-29T02:28:31.651Z,54.85
2018-12-29T02:31:14.551Z,60.10
2018-12-29T02:33:55.841Z,65.55
2018-12-29T02:36:37.007Z,61.50
2018-12-29T02:39:17.879Z,66.72
2018-12-29T02:41:58.765Z,65.25
2018-12-29T02:44:39.733Z,69.65
2018-12-29T02:47:20.609Z,59.48
2018-12-29T02:50:01.740Z,59.83
2018-12-29T02:52:42.345Z,65.80
2018-12-29T02:55:23.437Z,61.33
2018-12-29T02:57:51.587Z,65.12
2018-12-29T03:00:41.195Z,63.55
2018-12-29T03:03:10.160Z,69.62
2018-12-29T03:05:39.218Z,59.70
2018-12-29T03:08:20.741Z,68.02
2018-12-29T03:10:48.783Z,63.70
2018-12-29T03:13:37.604Z,63.63
2018-12-29T03:16:19.140Z,56.83
2018-12-29T03:19:04.026Z,61.92
2018-12-29T03:21:45.026Z,74.90
2018-12-29T03:24:26.211Z,60.55
2018-12-29T03:27:07.294Z,63.83
2018-12-29T03:29:35.754Z,66.37
2018-12-29T03:32:17.920Z,56.13
2018-12-29T03:34:59.694Z,61.35
2018-12-29T03:37:40.931Z,65.00
2018-12-29T03:40:22.123Z,65.28
2018-12-29T03:43:02.875Z,64.82
2018-12-29T03:45:49.122Z,66.45
2018-12-29T03:48:27.263Z,63.80
2018-12-29T03:51:08.151Z,68.97
2018-12-29T03:53:49.222Z,60.50
2018-12-29T03:56:17.892Z,63.17
2018-12-29T04:02:05.301Z,61.77
2018-12-29T04:04:47.519Z,62.53
2018-12-29T04:07:28.776Z,61.02
2018-12-29T04:10:10.148Z,64.32
2018-12-29T04:15:46.980Z,62.03
2018-12-29T04:18:27.147Z,59.98
2018-12-29T04:21:08.244Z,59.98
2018-12-29T04:23:48.196Z,56.05
2018-12-29T04:26:28.380Z,58.75
2018-12-29T04:29:08.215Z,55.10
2018-12-29T04:31:48.780Z,62.27
2018-12-29T04:34:28.863Z,59.90
2018-12-29T04:37:09.634Z,56.65
2018-12-29T04:39:49.702Z,60.20
2018-12-29T04:42:29.820Z,61.20
2018-12-29T04:45:09.617Z,61.13
2018-12-29T04:47:50.191Z,62.00
2018-12-29T04:50:30.342Z,64.45
2018-12-29T04:53:10.851Z,59.67
2018-12-29T04:55:51.047Z,56.42
2018-12-29T04:58:31.038Z,62.78
2018-12-29T05:01:11.251Z,61.45
2018-12-29T05:03:56.548Z,55.08
2018-12-29T05:06:36.828Z,55.98
2018-12-29T05:09:17.096Z,52.62
2018-12-29T05:11:58.235Z,58.92
2018-12-29T05:14:39.158Z,54.38
2018-12-29T05:17:20.493Z,54.18
2018-12-29T05:20:01.496Z,53.17
2018-12-29T05:22:42.534Z,55.33
2018-12-29T05:25:23.595Z,55.10
2018-12-29T05:28:05.202Z,52.90
2018-12-29T05:30:33.550Z,52.27
2018-12-29T05:33:22.624Z,50.45
2018-12-29T05:36:04.994Z,52.03
2018-12-29T05:38:46.163Z,56.20
2018-12-29T05:41:27.559Z,53.92
2018-12-29T05:44:08.238Z,52.50
2018-12-29T05:46:49.577Z,53.58
2018-12-29T05:49:30.815Z,53.25
2018-12-29T05:52:11.874Z,52.35
2018-12-29T05:54:52.794Z,48.28
2018-12-29T05:57:33.839Z,50.12
2018-12-29T06:00:14.459Z,49.83
2018-12-29T06:02:55.137Z,49.45
2018-12-29T06:05:36.388Z,47.50
2018-12-29T06:08:16.907Z,51.98
2018-12-29T06:10:58.160Z,48.25
2018-12-29T06:13:39.111Z,50.10
2018-12-29T06:16:19.776Z,55.30
2018-12-29T06:19:01.236Z,47.17
2018-12-29T06:21:29.990Z,49.50
2018-12-29T06:24:19.243Z,45.43
2018-12-29T06:27:01.224Z,50.55
2018-12-29T06:29:41.876Z,49.75
2018-12-29T06:32:22.758Z,50.10
2018-12-29T06:35:03.974Z,45.75
2018-12-29T06:37:45.287Z,42.45
2018-12-29T06:40:26.338Z,48.55
2018-12-29T06:43:07.177Z,41.37
2018-12-29T06:45:48.341Z,45.05
2018-12-29T06:48:29.667Z,44.10
2018-12-29T06:51:10.606Z,40.08
2018-12-29T06:53:52.164Z,43.05
2018-12-29T06:56:32.876Z,42.27
2018-12-29T06:59:13.911Z,43.90
2018-12-29T07:01:54.816Z,42.65
2018-12-29T07:04:36.314Z,46.55
2018-12-29T07:07:17.143Z,41.48
2018-12-29T07:09:58.763Z,42.03
2018-12-29T07:12:38.691Z,45.55
2018-12-29T07:15:19.543Z,46.18
2018-12-29T07:17:48.022Z,44.25
2018-12-29T07:20:30.358Z,45.95
2018-12-29T07:23:11.589Z,44.05
2018-12-29T07:25:52.569Z,43.70
2018-12-29T07:28:33.699Z,37.50
2018-12-29T07:31:14.977Z,43.42
2018-12-29T07:33:56.531Z,40.38
2018-12-29T07:36:37.419Z,48.00
2018-12-29T07:39:17.815Z,46.80
2018-12-29T07:41:59.409Z,42.85
2018-12-29T07:44:40.074Z,45.90
2018-12-29T07:47:21.162Z,43.17
2018-12-29T07:50:02.440Z,45.92
2018-12-29T07:52:43.114Z,51.60
2018-12-29T07:55:24.475Z,49.03
2018-12-29T07:57:52.976Z,45.85
2018-12-29T08:00:41.468Z,46.98
2018-12-29T08:03:23.411Z,52.60
2018-12-29T08:06:05.128Z,52.40
2018-12-29T08:08:46.112Z,50.05
2018-12-29T08:11:27.229Z,49.90
2018-12-29T08:14:08.227Z,54.95
2018-12-29T08:16:36.832Z,52.08
2018-12-29T08:19:26.108Z,50.67
2018-12-29T08:22:07.195Z,56.33
2018-12-29T08:24:48.211Z,51.85
2018-12-29T08:27:29.108Z,53.08
2018-12-29T08:30:09.985Z,47.98
2018-12-29T08:32:51.184Z,51.98
2018-12-29T08:35:32.260Z,53.38
2018-12-29T08:38:13.561Z,55.78
2018-12-29T08:40:54.201Z,60.55
2018-12-29T08:43:23.252Z,54.67
2018-12-29T08:46:12.475Z,45.85
2018-12-29T08:48:54.378Z,50.95
2018-12-29T08:51:35.754Z,52.05
2018-12-29T08:54:15.436Z,56.92
2018-12-29T08:56:56.510Z,50.60
2018-12-29T08:59:37.511Z,48.10
2018-12-29T09:02:18.442Z,50.73
2018-12-29T09:07:49.642Z,51.23
2018-12-29T09:10:30.108Z,48.45
2018-12-29T09:13:10.443Z,49.30
2018-12-29T09:15:49.956Z,53.83
2018-12-29T09:18:31.267Z,53.20
2018-12-29T09:21:12.862Z,51.73
2018-12-29T09:23:52.375Z,53.52
2018-12-29T09:26:33.921Z,49.25
2018-12-29T09:29:15.041Z,50.10
2018-12-29T09:31:56.137Z,48.78
2018-12-29T09:34:36.647Z,50.17
2018-12-29T09:37:04.879Z,59.73
2018-12-29T09:39:53.615Z,60.78
2018-12-29T09:42:36.192Z,51.95
2018-12-29T09:45:04.425Z,57.55
2018-12-29T09:51:10.130Z,64.80
2018-12-29T09:53:51.869Z,57.83
2018-12-29T09:56:33.413Z,61.20
2018-12-29T09:59:14.524Z,56.00
2018-12-29T10:01:55.258Z,61.90
2018-12-29T10:04:52.735Z,64.07
2018-12-29T10:07:33.966Z,56.18
2018-12-29T10:10:02.947Z,57.53
2018-12-29T10:12:51.983Z,59.30
2018-12-29T10:15:33.961Z,60.20
2018-12-29T10:18:15.370Z,62.90
2018-12-29T10:20:55.905Z,63.02
2018-12-29T10:23:38.657Z,57.80
2018-12-29T10:26:19.376Z,63.70
2018-12-29T10:28:59.990Z,61.48
2018-12-29T10:31:41.580Z,59.25
2018-12-29T10:34:22.793Z,53.78
2018-12-29T10:37:03.958Z,56.92
2018-12-29T10:39:32.158Z,56.80
2018-12-29T10:42:20.727Z,60.15
2018-12-29T10:45:01.230Z,51.58
2018-12-29T10:47:41.693Z,53.60
2018-12-29T10:50:10.015Z,49.45
2018-12-29T10:52:57.095Z,57.50
2018-12-29T10:55:36.834Z,52.08
2018-12-29T10:58:17.111Z,52.88
2018-12-29T11:00:57.322Z,58.70
2018-12-29T11:03:37.067Z,51.77
2018-12-29T11:06:17.738Z,51.15
2018-12-29T11:08:57.451Z,54.30
2018-12-29T11:11:24.909Z,49.73
2018-12-29T11:13:54.280Z,51.48
2018-12-29T11:16:39.358Z,48.28
2018-12-29T11:19:20.977Z,49.67
2018-12-29T11:22:02.260Z,51.92
2018-12-29T11:24:43.266Z,52.40
2018-12-29T11:27:25.075Z,47.55
2018-12-29T11:30:05.478Z,45.17
2018-12-29T11:32:38.543Z,54.75
2018-12-29T11:35:28.998Z,50.40
2018-12-29T11:38:19.476Z,51.30
2018-12-29T11:40:59.874Z,48.23
2018-12-29T11:43:41.444Z,53.17
2018-12-29T11:46:11.557Z,47.67
2018-12-29T11:49:01.993Z,56.88
2018-12-29T11:54:51.828Z,52.10
2018-12-29T11:57:23.387Z,54.45
2018-12-29T12:00:10.060Z,50.38
2018-12-29T12:02:49.583Z,50.28
2018-12-29T12:05:29.528Z,46.63
2018-12-29T12:08:09.970Z,45.83
2018-12-29T12:10:51.089Z,52.05
2018-12-29T12:13:23.887Z,43.23
2018-12-29T12:16:12.555Z,45.73
2018-12-29T12:18:43.989Z,47.15
2018-12-29T12:21:26.431Z,47.33
2018-12-29T12:24:07.491Z,43.95
2018-12-29T12:26:48.611Z,45.70
2018-12-29T12:29:22.541Z,42.80
2018-12-29T12:32:10.517Z,44.13
2018-12-29T12:37:24.164Z,44.75
2018-12-29T12:40:19.241Z,45.28
2018-12-29T12:42:48.230Z,39.60
2018-12-29T12:45:37.060Z,42.43
2018-12-29T12:48:22.543Z,41.25
2018-12-29T12:51:04.379Z,40.38
2018-12-29T12:53:45.103Z,43.70
2018-12-29T12:59:09.390Z,43.73
2018-12-29T13:01:58.062Z,42.83
2018-12-29T13:04:37.933Z,42.85
2018-12-29T13:07:19.598Z,37.20
2018-12-29T13:10:00.279Z,38.67
2018-12-29T13:12:41.584Z,38.25
2018-12-29T13:15:09.684Z,36.00
2018-12-29T13:17:58.652Z,40.80
2018-12-29T13:20:40.209Z,32.67
2018-12-29T13:23:21.153Z,33.35
2018-12-29T13:26:02.400Z,37.03
2018-12-29T13:28:32.405Z,29.15
2018-12-29T13:31:01.420Z,36.35
2018-12-29T13:33:30.267Z,35.30
2018-12-29T13:36:18.990Z,35.00
2018-12-29T13:39:01.176Z,40.80
2018-12-29T13:41:42.452Z,34.58
2018-12-29T13:44:23.764Z,36.42
2018-12-29T13:47:11.554Z,37.08
2018-12-29T13:50:00.836Z,36.48
2018-12-29T13:52:42.756Z,33.40
2018-12-29T13:55:14.668Z,34.10
2018-12-29T13:58:03.516Z,30.68
2018-12-29T14:00:33.263Z,37.85
2018-12-29T14:03:23.360Z,35.17
2018-12-29T14:06:10.684Z,33.02
2018-12-29T14:08:59.898Z,36.00
2018-12-29T14:11:41.831Z,43.10
2018-12-29T14:14:14.214Z,43.48
2018-12-29T14:17:02.925Z,34.35
2018-12-29T14:19:33.046Z,37.45
2018-12-29T14:22:15.107Z,35.55
2018-12-29T14:24:55.998Z,35.60
2018-12-29T14:27:37.161Z,34.67
2018-12-29T14:30:18.040Z,35.75
2018-12-29T14:32:59.007Z,32.88
2018-12-29T14:35:31.316Z,32.25
2018-12-29T14:38:39.679Z,33.42
2018-12-29T14:41:24.643Z,25.97
2018-12-29T14:44:05.638Z,35.58
2018-12-29T14:49:31.968Z,30.72
2018-12-29T14:52:12.163Z,32.33
2018-12-29T14:54:52.295Z,30.23
2018-12-29T14:57:35.457Z,28.73
2018-12-29T15:00:16.299Z,26.12
2018-12-29T15:02:49.515Z,27.73
2018-12-29T15:05:38.453Z,29.50
2018-12-29T15:08:18.955Z,28.12
2018-12-29T15:10:58.562Z,30.77
2018-12-29T15:13:45.532Z,29.35
2018-12-29T15:16:25.832Z,22.60
2018-12-29T15:19:05.855Z,28.60
2018-12-29T15:21:46.727Z,27.42
2018-12-29T15:24:26.852Z,25.43
2018-12-29T15:27:10.123Z,25.52
2018-12-29T15:29:50.823Z,29.15
2018-12-29T15:32:31.071Z,25.37
2018-12-29T15:35:12.913Z,24.55
2018-12-29T15:38:04.654Z,26.57
2018-12-29T15:40:53.763Z,27.20
2018-12-29T15:43:33.862Z,25.80
2018-12-29T15:46:22.701Z,27.17
2018-12-29T15:49:10.630Z,27.42
2018-12-29T15:51:50.844Z,27.10
2018-12-29T15:54:23.203Z,34.13
2018-12-29T15:56:52.547Z,24.60
2018-12-29T15:59:21.494Z,24.65
2018-12-29T16:01:49.518Z,25.27
2018-12-29T16:04:31.911Z,29.65
2018-12-29T16:07:12.764Z,28.52
2018-12-29T16:09:45.999Z,25.17
2018-12-29T16:12:35.039Z,25.75
2018-12-29T16:15:24.547Z,22.37
2018-12-29T16:18:13.241Z,25.32
2018-12-29T16:20:54.297Z,25.48
2018-12-29T16:23:34.738Z,21.65
2018-12-29T16:26:14.687Z,17.12
2018-12-29T16:28:45.107Z,15.63
2018-12-29T16:31:33.672Z,16.50
2018-12-29T16:34:22.555Z,18.92
2018-12-29T16:37:11.136Z,16.48
2018-12-29T16:39:51.464Z,14.70
2018-12-29T16:42:19.876Z,13.15
2018-12-29T16:45:08.555Z,12.05
2018-12-29T16:47:42.959Z,11.60
2018-12-29T16:50:31.020Z,9.90
2018-12-29T16:56:21.201Z,10.32
2018-12-29T16:59:01.268Z,13.25
2018-12-29T17:01:41.300Z,12.37
2018-12-29T17:04:22.536Z,13.05
2018-12-29T17:07:07.335Z,14.07
2018-12-29T17:09:46.845Z,10.93
2018-12-29T17:12:27.539Z,11.95
2018-12-29T17:15:08.347Z,15.90
2018-12-29T17:17:49.468Z,16.48
2018-12-29T17:20:30.569Z,15.15
2018-12-29T17:23:12.527Z,15.70
2018-12-29T17:25:53.655Z,14.90
2018-12-29T17:28:34.148Z,17.17
2018-12-29T17:31:23.656Z,18.82
2018-12-29T17:34:19.698Z,18.35
2018-12-29T17:37:08.224Z,21.80
2018-12-29T17:39:37.582Z,23.67
2018-12-29T17:42:24.563Z,21.82
2018-12-29T17:45:04.119Z,24.95
2018-12-29T17:47:44.779Z,22.60
2018-12-29T17:50:15.571Z,23.32
2018-12-29T17:53:02.510Z,21.97
2018-12-29T17:55:35.654Z,27.87
2018-12-29T17:58:22.684Z,25.35
2018-12-29T18:01:04.687Z,28.87
2018-12-29T18:03:44.764Z,25.72
2018-12-29T18:06:14.014Z,25.95
2018-12-29T18:09:04.215Z,28.15
2018-12-29T18:11:36.115Z,29.37
2018-12-29T18:14:05.804Z,30.40
2018-12-29T18:16:47.901Z,27.45
2018-12-29T18:19:30.861Z,30.68
2018-12-29T18:24:57.766Z,36.30
2018-12-29T18:27:38.927Z,35.52
2018-12-29T18:30:20.067Z,32.55
2018-12-29T18:33:00.990Z,33.40
2018-12-29T18:35:42.300Z,36.70
2018-12-29T18:38:13.843Z,34.43
2018-12-29T18:44:09.024Z,38.85
2018-12-29T18:49:26.933Z,42.88
2018-12-29T18:52:14.088Z,39.30
2018-12-29T18:54:54.161Z,41.48
2018-12-29T18:57:33.783Z,37.17
2018-12-29T19:00:13.865Z,41.75
2018-12-29T19:02:54.372Z,43.48
2018-12-29T19:05:34.450Z,47.30
2018-12-29T19:08:14.412Z,45.33
2018-12-29T19:10:50.626Z,41.70
2018-12-29T19:13:51.861Z,48.35
2018-12-29T19:16:31.803Z,48.70
2018-12-29T19:19:00.230Z,48.28
2018-12-29T19:21:33.675Z,50.78
2018-12-29T19:24:23.282Z,53.17
2018-12-29T19:27:12.868Z,51.45
2018-12-29T19:30:02.871Z,50.80
2018-12-29T19:32:54.948Z,55.17
2018-12-29T19:35:36.556Z,54.60
2018-12-29T19:38:05.494Z,60.85
2018-12-29T19:41:00.019Z,52.20
2018-12-29T19:43:48.469Z,56.63
2018-12-29T19:46:29.681Z,58.68
2018-12-29T19:49:10.847Z,48.42
2018-12-29T19:51:51.902Z,54.45
2018-12-29T19:54:32.937Z,46.68
2018-12-29T19:57:13.937Z,51.73
2018-12-29T19:59:54.961Z,50.10
2018-12-29T20:02:37.435Z,47.78
2018-12-29T20:05:23.791Z,46.02
2018-12-29T20:08:04.971Z,51.10
2018-12-29T20:10:46.034Z,41.83
2018-12-29T20:13:26.871Z,40.95
2018-12-29T20:16:08.128Z,45.75
2018-12-29T20:18:49.327Z,43.38
2018-12-29T20:21:30.259Z,42.53
2018-12-29T20:24:11.356Z,36.20
2018-12-29T20:26:52.382Z,42.50
2018-12-29T20:29:33.458Z,36.85
2018-12-29T20:32:14.476Z,36.80
2018-12-29T20:34:55.640Z,36.93
2018-12-29T20:37:45.754Z,35.03
2018-12-29T20:43:24.512Z,28.70
2018-12-29T20:46:04.424Z,29.80
2018-12-29T20:48:44.922Z,24.57
2018-12-29T20:51:24.999Z,21.00
2018-12-29T20:54:05.151Z,25.12
2018-12-29T20:56:45.075Z,25.02
2018-12-29T20:59:24.719Z,18.90
2018-12-29T21:02:04.942Z,17.65
2018-12-29T21:04:44.825Z,18.00
2018-12-29T21:07:25.007Z,20.27
2018-12-29T21:10:05.155Z,16.20
2018-12-29T21:12:45.472Z,14.87
2018-12-29T21:15:12.795Z,7.65
2018-12-29T21:18:05.116Z,12.82
2018-12-29T21:20:45.139Z,8.73
2018-12-29T21:23:25.126Z,7.70
2018-12-29T21:26:05.307Z,15.95
2018-12-29T21:28:45.624Z,12.70
2018-12-29T21:31:17.493Z,13.80
2018-12-29T21:34:06.054Z,9.85
2018-12-29T21:36:48.399Z,18.30
2018-12-29T21:39:32.998Z,8.88
2018-12-29T21:42:12.563Z,10.58
2018-12-29T21:44:52.403Z,14.93
2018-12-29T21:50:33.896Z,12.45
2018-12-29T21:53:13.782Z,6.28
2018-12-29T21:55:53.772Z,10.80
2018-12-29T21:58:33.720Z,8.18
2018-12-29T22:01:17.731Z,13.72
2018-12-29T22:03:59.092Z,12.13
2018-12-29T22:06:40.191Z,12.47
2018-12-29T22:09:22.700Z,10.88
2018-12-29T22:14:51.075Z,14.23
2018-12-29T22:17:35.808Z,9.45
2018-12-29T22:20:20.343Z,8.75
2018-12-29T22:23:01.296Z,8.23
2018-12-29T22:25:48.222Z,8.75
2018-12-29T22:28:25.622Z,9.68
2018-12-29T22:31:06.623Z,10.65
2018-12-29T22:33:47.896Z,7.67
2018-12-29T22:36:35.895Z,11.70
2018-12-29T22:39:24.897Z,8.35
2018-12-29T22:41:53.979Z,12.98
2018-12-29T22:44:42.666Z,17.30
2018-12-29T22:47:24.685Z,8.10
2018-12-29T22:49:59.285Z,15.75
2018-12-29T22:53:12.139Z,8.83
2018-12-29T22:55:52.603Z,11.48
2018-12-29T22:58:33.699Z,14.25
2018-12-29T23:01:14.555Z,13.00
2018-12-29T23:03:55.228Z,10.38
2018-12-29T23:06:36.406Z,10.20
2018-12-29T23:09:17.239Z,8.75
2018-12-29T23:11:58.383Z,13.98
2018-12-29T23:14:39.662Z,6.28
2018-12-29T23:17:21.635Z,14.73
2018-12-29T23:20:02.812Z,8.65
2018-12-29T23:22:43.715Z,14.55
2018-12-29T23:25:11.800Z,13.95
2018-12-29T23:27:59.774Z,13.55
2018-12-29T23:30:41.188Z,11.63
2018-12-29T23:33:22.085Z,14.87
2018-12-29T23:36:03.112Z,13.53
2018-12-29T23:41:25.357Z,16.52
2018-12-29T23:43:55.295Z,10.03
2018-12-29T23:46:43.852Z,18.95
2018-12-29T23:49:14.398Z,16.85
2018-12-29T23:52:02.379Z,13.10
2018-12-29T23:54:31.055Z,9.55
2018-12-29T23:57:26.059Z,9.00
